< < Back
Terminal Aerodrome Forecast


Current Version              Previous Versions:   1  2  3  4  5  6  7  8  9  

Terminal Aerodrome Forecast

610
FTUS42 KGSP 291400 AAB
TAFGSP
TAF AMD
KGSP 291400Z 2914/3012 00000KT P6SM SCT020 BKN120
      TEMPO 2914/2916 BKN020
     FM291600 18005KT P6SM BKN035
     FM291900 20007KT P6SM VCSH BKN040
      TEMPO 2919/2923 VRB10G20KT 4SM TSRA BKN030CB
     FM300100 00000KT P6SM BKN050=

Latest METAR

144
SAUS70 KWBC 301000 RRC
MTRGSP
METAR KGSP 300953Z 14003KT 7SM SCT055 24/23 A2996 RMK AO2 SLP133
T02390228


USA.gov is the U.S. government's official web portal to all federal, state and local government web resources and services.